createdAt,value
2022-10-23T00:00:24.856Z,99.99
2022-10-23T00:01:24.731Z,99.99
2022-10-23T00:02:24.925Z,99.99
2022-10-23T00:03:24.723Z,99.99
2022-10-23T00:04:24.731Z,99.99
2022-10-23T00:05:27.770Z,99.99
2022-10-23T00:06:27.470Z,99.99
2022-10-23T00:07:24.848Z,99.99
2022-10-23T00:08:24.777Z,99.99
2022-10-23T00:09:24.710Z,99.99
2022-10-23T00:10:24.830Z,99.99
2022-10-23T00:11:24.726Z,99.99
2022-10-23T00:12:24.713Z,99.99
2022-10-23T00:13:24.748Z,99.99
2022-10-23T00:14:24.729Z,99.99
2022-10-23T00:15:24.722Z,99.99
2022-10-23T00:16:27.742Z,99.99
2022-10-23T00:17:25.784Z,99.99
2022-10-23T00:18:24.787Z,99.99
2022-10-23T00:19:24.729Z,99.99
2022-10-23T00:20:24.725Z,99.99
2022-10-23T00:21:24.734Z,99.99
2022-10-23T00:22:24.730Z,99.99
2022-10-23T00:23:24.754Z,99.99
2022-10-23T00:24:24.736Z,99.99
2022-10-23T00:25:24.756Z,99.99
2022-10-23T00:26:24.750Z,99.99
2022-10-23T00:27:25.878Z,99.99
2022-10-23T00:28:24.778Z,99.99
2022-10-23T00:29:24.748Z,99.99
2022-10-23T00:30:24.744Z,99.99
2022-10-23T00:31:24.774Z,99.99
2022-10-23T00:32:24.858Z,99.99
2022-10-23T00:33:24.801Z,99.99
2022-10-23T00:34:24.794Z,99.99
2022-10-23T00:35:24.762Z,99.99
2022-10-23T00:36:24.755Z,99.99
2022-10-23T00:37:24.779Z,99.99
2022-10-23T00:38:28.247Z,99.99
2022-10-23T00:39:24.758Z,99.99
2022-10-23T00:40:24.759Z,99.99
2022-10-23T00:41:24.765Z,99.99
2022-10-23T00:42:24.767Z,99.99
2022-10-23T00:43:24.770Z,99.99
2022-10-23T00:44:24.772Z,99.99
2022-10-23T00:45:27.578Z,99.99
2022-10-23T00:46:24.771Z,99.99
2022-10-23T00:47:24.778Z,99.99
2022-10-23T00:48:24.774Z,99.99
2022-10-23T00:49:27.899Z,99.99
2022-10-23T00:50:24.783Z,99.99
2022-10-23T00:51:24.777Z,99.99
2022-10-23T00:52:24.780Z,99.99
2022-10-23T00:53:24.781Z,99.99
2022-10-23T00:54:26.645Z,99.99
2022-10-23T00:55:24.787Z,99.99
2022-10-23T00:56:24.792Z,99.99
2022-10-23T00:57:24.900Z,99.99
2022-10-23T00:58:24.797Z,99.99
2022-10-23T00:59:24.815Z,99.99
2022-10-23T01:00:33.516Z,99.99
2022-10-23T01:01:25.094Z,99.99
2022-10-23T01:02:25.191Z,99.99
2022-10-23T01:03:24.837Z,99.99
2022-10-23T01:04:24.809Z,99.99
2022-10-23T01:05:24.872Z,99.99
2022-10-23T01:06:24.857Z,99.99
2022-10-23T01:07:24.824Z,99.99
2022-10-23T01:08:24.828Z,99.99
2022-10-23T01:09:24.848Z,99.99
2022-10-23T01:10:24.844Z,99.99
2022-10-23T01:11:24.826Z,99.99
2022-10-23T01:12:24.828Z,99.99
2022-10-23T01:13:24.815Z,99.99
2022-10-23T01:14:24.882Z,99.99
2022-10-23T01:15:24.869Z,99.99
2022-10-23T01:16:24.986Z,99.99
2022-10-23T01:17:24.842Z,99.99
2022-10-23T01:18:24.849Z,99.99
2022-10-23T01:19:24.827Z,99.99
2022-10-23T01:20:24.858Z,99.99
2022-10-23T01:21:24.908Z,99.99
2022-10-23T01:23:24.844Z,99.99
2022-10-23T01:24:24.871Z,99.99
2022-10-23T01:25:24.860Z,99.99
2022-10-23T01:26:24.847Z,99.99
2022-10-23T01:27:24.844Z,99.99
2022-10-23T01:28:24.846Z,99.99
2022-10-23T01:29:24.839Z,99.99
2022-10-23T01:30:24.854Z,99.99
2022-10-23T01:31:24.984Z,99.99
2022-10-23T01:32:27.902Z,99.99
2022-10-23T01:33:24.849Z,99.99
2022-10-23T01:34:24.852Z,99.99
2022-10-23T01:35:24.856Z,99.99
2022-10-23T01:36:24.849Z,99.99
2022-10-23T01:37:24.919Z,99.99
2022-10-23T01:38:24.865Z,99.99
2022-10-23T01:39:24.863Z,99.99
2022-10-23T01:40:24.863Z,99.99
2022-10-23T01:41:24.868Z,99.99
2022-10-23T01:42:25.010Z,99.99
2022-10-23T01:43:24.869Z,99.99
2022-10-23T01:44:24.870Z,99.99
2022-10-23T01:45:24.861Z,99.99
2022-10-23T01:46:24.874Z,99.99
2022-10-23T01:47:24.888Z,99.99
2022-10-23T01:48:27.895Z,99.99
2022-10-23T01:49:24.874Z,99.99
2022-10-23T01:50:24.880Z,99.99
2022-10-23T01:51:24.873Z,99.99
2022-10-23T01:52:24.887Z,99.99
2022-10-23T01:53:24.930Z,99.99
2022-10-23T01:54:24.908Z,99.99
2022-10-23T01:55:24.887Z,99.99
2022-10-23T01:56:24.882Z,99.99
2022-10-23T01:57:24.898Z,99.99
2022-10-23T01:58:24.887Z,99.99
2022-10-23T01:59:25.633Z,99.99
2022-10-23T02:00:24.896Z,99.99
2022-10-23T02:01:25.128Z,99.99
2022-10-23T02:02:25.171Z,99.99
2022-10-23T02:03:24.899Z,99.99
2022-10-23T02:04:24.921Z,99.99
2022-10-23T02:05:24.900Z,99.99
2022-10-23T02:06:24.907Z,99.99
2022-10-23T02:07:24.914Z,99.99
2022-10-23T02:08:24.910Z,99.99
2022-10-23T02:09:24.975Z,99.99
2022-10-23T02:10:28.081Z,99.99
2022-10-23T02:11:24.906Z,99.99
2022-10-23T02:12:24.986Z,99.99
2022-10-23T02:13:24.917Z,99.99
2022-10-23T02:14:24.936Z,99.99
2022-10-23T02:15:24.928Z,99.99
2022-10-23T02:16:24.921Z,99.99
2022-10-23T02:17:24.929Z,99.99
2022-10-23T02:18:24.928Z,99.99
2022-10-23T02:19:24.943Z,99.99
2022-10-23T02:20:24.924Z,99.99
2022-10-23T02:21:27.962Z,99.99
2022-10-23T02:22:24.935Z,99.99
2022-10-23T02:23:24.928Z,99.99
2022-10-23T02:24:24.958Z,99.99
2022-10-23T02:25:24.981Z,99.99
2022-10-23T02:26:24.984Z,99.99
2022-10-23T02:27:24.934Z,99.99
2022-10-23T02:28:24.944Z,99.99
2022-10-23T02:29:24.959Z,99.99
2022-10-23T02:30:24.938Z,99.99
2022-10-23T02:31:24.952Z,99.99
2022-10-23T02:32:27.980Z,99.99
2022-10-23T02:33:24.949Z,99.99
2022-10-23T02:34:24.977Z,99.99
2022-10-23T02:35:24.952Z,99.99
2022-10-23T02:36:24.956Z,99.99
2022-10-23T02:37:25.028Z,99.99
2022-10-23T02:38:24.953Z,99.99
2022-10-23T02:39:24.983Z,99.99
2022-10-23T02:40:24.961Z,99.99
2022-10-23T02:41:25.024Z,99.99
2022-10-23T02:42:24.966Z,99.99
2022-10-23T02:43:27.855Z,99.99
2022-10-23T02:44:24.986Z,99.99
2022-10-23T02:45:24.975Z,99.99
2022-10-23T02:46:24.968Z,99.99
2022-10-23T02:47:24.976Z,99.99
2022-10-23T02:48:24.974Z,99.99
2022-10-23T02:49:24.990Z,99.99
2022-10-23T02:50:24.970Z,99.99
2022-10-23T02:51:24.978Z,99.99
2022-10-23T02:52:24.983Z,99.99
2022-10-23T02:53:24.978Z,99.99
2022-10-23T02:54:26.328Z,99.99
2022-10-23T02:55:24.988Z,99.99
2022-10-23T02:56:24.981Z,99.99
2022-10-23T02:57:25.033Z,99.99
2022-10-23T02:58:24.995Z,99.99
2022-10-23T02:59:25.019Z,99.99
2022-10-23T03:00:25.000Z,99.99
2022-10-23T03:01:25.313Z,99.99
2022-10-23T03:02:25.840Z,99.99
2022-10-23T03:03:24.993Z,99.99
2022-10-23T03:04:25.182Z,99.99
2022-10-23T03:05:28.002Z,99.99
2022-10-23T03:06:25.002Z,99.99
2022-10-23T03:07:24.999Z,99.99
2022-10-23T03:08:25.006Z,99.99
2022-10-23T03:09:25.015Z,99.99
2022-10-23T03:10:25.007Z,99.99
2022-10-23T03:11:25.008Z,99.99
2022-10-23T03:12:25.007Z,99.99
2022-10-23T03:13:25.067Z,99.99
2022-10-23T03:14:25.203Z,99.99
2022-10-23T03:15:25.018Z,99.99
2022-10-23T03:16:28.041Z,99.99
2022-10-23T03:17:25.014Z,99.99
2022-10-23T03:18:25.018Z,99.99
2022-10-23T03:19:25.039Z,99.99
2022-10-23T03:20:25.024Z,99.99
2022-10-23T03:21:25.024Z,99.99
2022-10-23T03:22:25.022Z,99.99
2022-10-23T03:23:25.026Z,99.99
2022-10-23T03:24:25.056Z,99.99
2022-10-23T03:25:25.032Z,99.99
2022-10-23T03:26:25.037Z,99.99
2022-10-23T03:27:25.170Z,99.99
2022-10-23T03:28:25.036Z,99.99
2022-10-23T03:29:25.101Z,99.99
2022-10-23T03:30:25.058Z,99.99
2022-10-23T03:31:25.040Z,99.99
2022-10-23T03:32:25.042Z,99.99
2022-10-23T03:33:25.051Z,99.99
2022-10-23T03:34:25.101Z,99.99
2022-10-23T03:35:25.043Z,99.99
2022-10-23T03:36:25.082Z,99.99
2022-10-23T03:37:25.047Z,99.99
2022-10-23T03:38:25.081Z,99.99
2022-10-23T03:39:25.074Z,99.99
2022-10-23T03:40:25.075Z,99.99
2022-10-23T03:41:25.057Z,99.99
2022-10-23T03:42:25.067Z,99.99
2022-10-23T03:43:25.058Z,99.99
2022-10-23T03:44:25.088Z,99.99
2022-10-23T03:45:25.118Z,99.99
2022-10-23T03:46:25.067Z,99.99
2022-10-23T03:47:25.070Z,99.99
2022-10-23T03:48:25.067Z,99.99
2022-10-23T03:49:25.104Z,99.99
2022-10-23T03:50:25.072Z,99.99
2022-10-23T03:51:25.069Z,99.99
2022-10-23T03:52:28.136Z,99.99
2022-10-23T03:53:25.073Z,99.99
2022-10-23T03:54:25.102Z,99.99
2022-10-23T03:55:25.080Z,99.99
2022-10-23T03:56:25.082Z,99.99
2022-10-23T03:57:25.081Z,99.99
2022-10-23T03:58:25.084Z,99.99
2022-10-23T03:59:25.185Z,99.99
2022-10-23T04:00:25.102Z,99.99
2022-10-23T04:01:25.349Z,99.99
2022-10-23T04:02:25.226Z,99.99
2022-10-23T04:03:25.091Z,99.99
2022-10-23T04:04:25.118Z,99.99
2022-10-23T04:05:25.097Z,99.99
2022-10-23T04:06:25.244Z,99.99
2022-10-23T04:07:25.097Z,99.99
2022-10-23T04:08:25.112Z,99.99
2022-10-23T04:09:25.201Z,99.99
2022-10-23T04:10:25.117Z,99.99
2022-10-23T04:11:25.111Z,99.99
2022-10-23T04:12:25.102Z,99.99
2022-10-23T04:13:25.113Z,99.99
2022-10-23T04:14:25.141Z,99.99
2022-10-23T04:15:25.299Z,99.99
2022-10-23T04:16:25.110Z,99.99
2022-10-23T04:17:25.281Z,99.99
2022-10-23T04:18:25.125Z,99.99
2022-10-23T04:19:25.154Z,99.99
2022-10-23T04:20:25.137Z,99.99
2022-10-23T04:21:25.117Z,99.99
2022-10-23T04:22:28.618Z,99.99
2022-10-23T04:23:25.128Z,99.99
2022-10-23T04:24:25.160Z,99.99
2022-10-23T04:25:25.141Z,99.99
2022-10-23T04:26:27.912Z,99.99
2022-10-23T04:27:25.139Z,99.99
2022-10-23T04:28:25.134Z,99.99
2022-10-23T04:29:25.171Z,99.99
2022-10-23T04:30:25.145Z,99.99
2022-10-23T04:31:25.158Z,99.99
2022-10-23T04:32:25.138Z,99.99
2022-10-23T04:33:25.189Z,99.99
2022-10-23T04:34:25.171Z,99.99
2022-10-23T04:35:25.217Z,99.99
2022-10-23T04:36:25.340Z,99.99
2022-10-23T04:37:26.286Z,99.99
2022-10-23T04:38:25.153Z,99.99
2022-10-23T04:39:25.176Z,99.99
2022-10-23T04:40:25.154Z,99.99
2022-10-23T04:41:25.188Z,99.99
2022-10-23T04:43:25.203Z,99.99
2022-10-23T04:44:25.197Z,99.99
2022-10-23T04:45:25.156Z,99.99
2022-10-23T04:46:25.162Z,99.99
2022-10-23T04:47:25.164Z,99.99
2022-10-23T04:48:31.505Z,99.99
2022-10-23T04:49:25.186Z,99.99
2022-10-23T04:50:25.204Z,99.99
2022-10-23T04:51:25.166Z,99.99
2022-10-23T04:52:25.167Z,99.99
2022-10-23T04:53:25.184Z,99.99
2022-10-23T04:54:25.197Z,99.99
2022-10-23T04:55:25.170Z,99.99
2022-10-23T04:56:25.175Z,99.99
2022-10-23T04:57:25.185Z,99.99
2022-10-23T04:58:25.178Z,99.99
2022-10-23T04:59:28.254Z,99.99
2022-10-23T05:00:25.181Z,99.99
2022-10-23T05:01:25.425Z,99.99
2022-10-23T05:02:25.184Z,99.99
2022-10-23T05:03:25.196Z,99.99
2022-10-23T05:04:25.241Z,99.99
2022-10-23T05:05:25.197Z,99.99
2022-10-23T05:06:25.191Z,99.99
2022-10-23T05:07:25.215Z,99.99
2022-10-23T05:08:25.203Z,99.99
2022-10-23T05:09:25.212Z,99.99
2022-10-23T05:10:28.227Z,99.99
2022-10-23T05:11:25.221Z,99.99
2022-10-23T05:12:25.233Z,99.99
2022-10-23T05:13:25.225Z,99.99
2022-10-23T05:14:25.385Z,99.99
2022-10-23T05:15:25.231Z,99.99
2022-10-23T05:16:25.230Z,99.99
2022-10-23T05:17:25.228Z,99.99
2022-10-23T05:18:25.221Z,99.99
2022-10-23T05:19:26.790Z,99.99
2022-10-23T05:20:25.261Z,99.99
2022-10-23T05:21:28.034Z,99.99
2022-10-23T05:22:25.222Z,99.99
2022-10-23T05:23:25.215Z,99.99
2022-10-23T05:24:25.226Z,99.99
2022-10-23T05:25:25.232Z,99.99
2022-10-23T05:26:25.231Z,99.99
2022-10-23T05:27:25.230Z,99.99
2022-10-23T05:28:25.245Z,99.99
2022-10-23T05:29:25.236Z,99.99
2022-10-23T05:30:25.224Z,99.99
2022-10-23T05:31:25.247Z,99.99
2022-10-23T05:32:28.299Z,99.99
2022-10-23T05:33:25.239Z,99.99
2022-10-23T05:34:25.236Z,99.99
2022-10-23T05:35:25.236Z,99.99
2022-10-23T05:36:25.327Z,99.99
2022-10-23T05:37:25.243Z,99.99
2022-10-23T05:38:25.274Z,99.99
2022-10-23T05:39:25.244Z,99.99
2022-10-23T05:40:25.279Z,99.99
2022-10-23T05:41:25.333Z,99.99
2022-10-23T05:42:25.274Z,99.99
2022-10-23T05:43:28.067Z,99.99
2022-10-23T05:44:25.250Z,99.99
2022-10-23T05:45:25.271Z,99.99
2022-10-23T05:46:25.263Z,99.99
2022-10-23T05:47:25.253Z,99.99
2022-10-23T05:48:36.641Z,99.99
2022-10-23T05:49:25.257Z,99.99
2022-10-23T05:50:25.269Z,99.99
2022-10-23T05:51:25.386Z,99.99
2022-10-23T05:52:25.386Z,99.99
2022-10-23T05:53:25.264Z,99.99
2022-10-23T05:54:28.273Z,99.99
2022-10-23T05:55:25.268Z,99.99
2022-10-23T05:56:25.277Z,99.99
2022-10-23T05:57:25.288Z,99.99
2022-10-23T05:58:25.270Z,99.99
2022-10-23T05:59:25.696Z,99.99
2022-10-23T06:00:25.279Z,99.99
2022-10-23T06:01:25.609Z,99.99
2022-10-23T06:02:25.481Z,99.99
2022-10-23T06:03:25.286Z,99.99
2022-10-23T06:04:25.296Z,99.99
2022-10-23T06:05:25.367Z,99.99
2022-10-23T06:06:25.285Z,99.99
2022-10-23T06:07:25.289Z,99.99
2022-10-23T06:08:25.339Z,99.99
2022-10-23T06:09:25.285Z,99.99
2022-10-23T06:10:25.317Z,99.99
2022-10-23T06:11:25.293Z,99.99
2022-10-23T06:12:25.133Z,99.99
2022-10-23T06:13:25.353Z,99.99
2022-10-23T06:14:25.298Z,99.99
2022-10-23T06:15:25.324Z,99.99
2022-10-23T06:16:25.304Z,99.99
2022-10-23T06:17:25.301Z,99.99
2022-10-23T06:18:25.314Z,99.99
2022-10-23T06:19:25.310Z,99.99
2022-10-23T06:20:30.329Z,99.99
2022-10-23T06:21:25.307Z,99.99
2022-10-23T06:22:25.334Z,99.99
2022-10-23T06:23:25.311Z,99.99
2022-10-23T06:24:25.390Z,99.99
2022-10-23T06:25:25.347Z,99.99
2022-10-23T06:26:25.345Z,99.99
2022-10-23T06:27:25.318Z,99.99
2022-10-23T06:28:25.321Z,99.99
2022-10-23T06:29:25.326Z,99.99
2022-10-23T06:30:25.440Z,99.99
2022-10-23T06:31:25.325Z,99.99
2022-10-23T06:32:25.326Z,99.99
2022-10-23T06:33:25.326Z,99.99
2022-10-23T06:34:25.346Z,99.99
2022-10-23T06:35:25.395Z,99.99
2022-10-23T06:36:25.335Z,99.99
2022-10-23T06:37:25.352Z,99.99
2022-10-23T06:38:25.336Z,99.99
2022-10-23T06:39:28.546Z,99.99
2022-10-23T06:40:25.417Z,99.99
2022-10-23T06:41:25.341Z,99.99
2022-10-23T06:42:25.759Z,99.99
2022-10-23T06:43:25.342Z,99.99
2022-10-23T06:44:25.348Z,99.99
2022-10-23T06:45:25.402Z,99.99
2022-10-23T06:46:25.348Z,99.99
2022-10-23T06:47:25.367Z,99.99
2022-10-23T06:48:25.353Z,99.99
2022-10-23T06:49:26.486Z,99.99
2022-10-23T06:50:25.375Z,99.99
2022-10-23T06:51:25.361Z,99.99
2022-10-23T06:52:48.137Z,99.99
2022-10-23T06:53:28.649Z,99.99
2022-10-23T06:54:25.374Z,99.99
2022-10-23T06:55:25.499Z,99.99
2022-10-23T06:56:25.406Z,99.99
2022-10-23T06:57:25.418Z,99.99
2022-10-23T06:58:25.376Z,99.99
2022-10-23T06:59:25.371Z,99.99
2022-10-23T07:00:25.403Z,99.99
2022-10-23T07:01:26.005Z,99.99
2022-10-23T07:02:25.377Z,99.99
2022-10-23T07:03:25.371Z,99.99
2022-10-23T07:04:26.426Z,99.99
2022-10-23T07:05:25.397Z,99.99
2022-10-23T07:06:25.378Z,99.99
2022-10-23T07:07:25.456Z,99.99
2022-10-23T07:08:25.482Z,99.99
2022-10-23T07:09:25.384Z,99.99
2022-10-23T07:10:25.413Z,99.99
2022-10-23T07:11:25.390Z,99.99
2022-10-23T07:12:25.446Z,99.99
2022-10-23T07:13:25.396Z,99.99
2022-10-23T07:14:25.394Z,99.99
2022-10-23T07:15:28.762Z,99.99
2022-10-23T07:16:25.397Z,99.99
2022-10-23T07:17:25.406Z,99.99
2022-10-23T07:18:25.584Z,99.99
2022-10-23T07:19:25.440Z,99.99
2022-10-23T07:20:25.402Z,99.99
2022-10-23T07:21:25.437Z,99.99
2022-10-23T07:22:25.408Z,99.99
2022-10-23T07:23:25.412Z,99.99
2022-10-23T07:24:25.429Z,99.99
2022-10-23T07:25:25.414Z,99.99
2022-10-23T07:26:28.465Z,99.99
2022-10-23T07:27:25.415Z,99.99
2022-10-23T07:28:25.539Z,99.99
2022-10-23T07:29:25.419Z,99.99
2022-10-23T07:30:25.468Z,99.99
2022-10-23T07:31:29.560Z,99.99
2022-10-23T07:32:25.425Z,99.99
2022-10-23T07:33:25.455Z,99.99
2022-10-23T07:34:25.265Z,99.99
2022-10-23T07:35:25.429Z,99.99
2022-10-23T07:36:25.454Z,99.99
2022-10-23T07:37:28.549Z,99.99
2022-10-23T07:38:25.492Z,99.99
2022-10-23T07:39:25.432Z,99.99
2022-10-23T07:40:25.471Z,99.99
2022-10-23T07:41:25.434Z,99.99
2022-10-23T07:42:25.442Z,99.99
2022-10-23T07:43:25.560Z,99.99
2022-10-23T07:44:29.315Z,99.99
2022-10-23T07:45:25.450Z,99.99
2022-10-23T07:46:25.442Z,99.99
2022-10-23T07:47:25.449Z,99.99
2022-10-23T07:48:28.484Z,99.99
2022-10-23T07:49:25.447Z,99.99
2022-10-23T07:50:25.489Z,99.99
2022-10-23T07:51:25.462Z,99.99
2022-10-23T07:52:25.456Z,99.99
2022-10-23T07:53:25.467Z,99.99
2022-10-23T07:54:25.491Z,99.99
2022-10-23T07:55:25.463Z,99.99
2022-10-23T07:56:25.472Z,99.99
2022-10-23T07:57:25.469Z,99.99
2022-10-23T07:58:25.504Z,99.99
2022-10-23T07:59:28.235Z,99.99
2022-10-23T08:00:28.326Z,99.99
2022-10-23T08:01:25.588Z,99.99
2022-10-23T08:02:25.587Z,99.99
2022-10-23T08:03:25.476Z,99.99
2022-10-23T08:04:25.482Z,99.99
2022-10-23T08:05:25.491Z,99.99
2022-10-23T08:06:25.479Z,99.99
2022-10-23T08:07:25.483Z,99.99
2022-10-23T08:08:25.585Z,99.99
2022-10-23T08:09:25.486Z,99.99
2022-10-23T08:10:28.720Z,99.99
2022-10-23T08:11:25.494Z,99.99
2022-10-23T08:12:25.491Z,99.99
2022-10-23T08:13:25.496Z,99.99
2022-10-23T08:14:25.496Z,99.99
2022-10-23T08:15:25.496Z,99.99
2022-10-23T08:16:25.551Z,99.99
2022-10-23T08:17:29.875Z,99.99
2022-10-23T08:18:25.505Z,99.99
2022-10-23T08:19:25.659Z,99.99
2022-10-23T08:20:25.621Z,99.99
2022-10-23T08:21:28.611Z,99.99
2022-10-23T08:22:25.510Z,99.99
2022-10-23T08:23:25.505Z,99.99
2022-10-23T08:24:28.559Z,99.99
2022-10-23T08:25:27.411Z,99.99
2022-10-23T08:26:25.523Z,99.99
2022-10-23T08:27:25.527Z,99.99
2022-10-23T08:28:25.520Z,99.99
2022-10-23T08:29:25.520Z,99.99
2022-10-23T08:30:25.576Z,99.99
2022-10-23T08:31:25.524Z,99.99
2022-10-23T08:32:25.579Z,99.99
2022-10-23T08:33:25.561Z,99.99
2022-10-23T08:34:25.529Z,99.99
2022-10-23T08:35:25.536Z,99.99
2022-10-23T08:36:25.568Z,99.99
2022-10-23T08:37:25.568Z,99.99
2022-10-23T08:38:25.542Z,99.99
2022-10-23T08:39:25.534Z,99.99
2022-10-23T08:40:25.539Z,99.99
2022-10-23T08:41:25.568Z,99.99
2022-10-23T08:42:25.569Z,99.99
2022-10-23T08:43:25.382Z,99.99
2022-10-23T08:44:25.548Z,99.99
2022-10-23T08:45:25.549Z,99.99
2022-10-23T08:46:25.577Z,99.99
2022-10-23T08:47:25.556Z,99.99
2022-10-23T08:48:25.605Z,99.99
2022-10-23T08:49:25.558Z,99.99
2022-10-23T08:50:25.675Z,99.99
2022-10-23T08:51:25.599Z,99.99
2022-10-23T08:52:25.572Z,99.99
2022-10-23T08:53:28.447Z,99.99
2022-10-23T08:54:25.568Z,99.99
2022-10-23T08:55:25.567Z,99.99
2022-10-23T08:56:25.591Z,99.99
2022-10-23T08:57:25.636Z,99.99
2022-10-23T08:58:25.588Z,99.99
2022-10-23T08:59:25.574Z,99.99
2022-10-23T09:00:25.576Z,99.99
2022-10-23T09:01:26.349Z,99.99
2022-10-23T09:02:25.854Z,99.99
2022-10-23T09:03:25.585Z,99.99
2022-10-23T09:04:25.625Z,99.99
2022-10-23T09:05:25.584Z,99.99
2022-10-23T09:06:25.622Z,99.99
2022-10-23T09:07:25.614Z,99.99
2022-10-23T09:08:25.590Z,99.99
2022-10-23T09:09:25.595Z,99.99
2022-10-23T09:10:25.597Z,99.99
2022-10-23T09:11:25.615Z,99.99
2022-10-23T09:12:25.595Z,99.99
2022-10-23T09:13:25.602Z,99.99
2022-10-23T09:14:25.608Z,99.99
2022-10-23T09:15:25.604Z,99.99
2022-10-23T09:16:25.632Z,99.99
2022-10-23T09:17:25.633Z,99.99
2022-10-23T09:18:25.607Z,99.99
2022-10-23T09:19:25.614Z,99.99
2022-10-23T09:20:28.675Z,99.99
2022-10-23T09:21:25.649Z,99.99
2022-10-23T09:22:25.608Z,99.99
2022-10-23T09:23:25.626Z,99.99
2022-10-23T09:24:25.621Z,99.99
2022-10-23T09:25:25.623Z,99.99
2022-10-23T09:26:25.646Z,99.99
2022-10-23T09:27:25.622Z,99.99
2022-10-23T09:28:25.636Z,99.99
2022-10-23T09:29:25.625Z,99.99
2022-10-23T09:30:25.635Z,99.99
2022-10-23T09:31:26.866Z,99.99
2022-10-23T09:32:25.629Z,99.99
2022-10-23T09:33:25.637Z,99.99
2022-10-23T09:34:25.633Z,99.99
2022-10-23T09:35:25.667Z,99.99
2022-10-23T09:36:25.723Z,99.99
2022-10-23T09:37:25.651Z,99.99
2022-10-23T09:38:25.643Z,99.99
2022-10-23T09:39:25.650Z,99.99
2022-10-23T09:40:25.650Z,99.99
2022-10-23T09:41:25.662Z,99.99
2022-10-23T09:42:28.527Z,99.99
2022-10-23T09:43:25.655Z,99.99
2022-10-23T09:44:25.653Z,99.99
2022-10-23T09:45:25.656Z,99.99
2022-10-23T09:46:25.686Z,99.99
2022-10-23T09:47:25.683Z,99.99
2022-10-23T09:48:25.678Z,99.99
2022-10-23T09:49:25.657Z,99.99
2022-10-23T09:50:25.675Z,99.99
2022-10-23T09:51:25.685Z,99.99
2022-10-23T09:52:25.734Z,99.99
2022-10-23T09:53:28.740Z,99.99
2022-10-23T09:54:25.673Z,99.99
2022-10-23T09:55:25.693Z,99.99
2022-10-23T09:56:27.210Z,99.99
2022-10-23T09:57:25.703Z,99.99
2022-10-23T09:58:25.675Z,99.99
2022-10-23T09:59:25.689Z,99.99
2022-10-23T10:00:25.682Z,99.99
2022-10-23T10:01:26.185Z,99.99
2022-10-23T10:02:25.773Z,99.99
2022-10-23T10:03:25.687Z,99.99
2022-10-23T10:04:28.462Z,99.99
2022-10-23T10:05:25.693Z,99.99
2022-10-23T10:06:25.696Z,99.99
2022-10-23T10:07:25.700Z,99.99
2022-10-23T10:08:25.740Z,99.99
2022-10-23T10:09:25.705Z,99.99
2022-10-23T10:10:25.696Z,99.99
2022-10-23T10:11:25.703Z,99.99
2022-10-23T10:12:25.822Z,99.99
2022-10-23T10:13:25.726Z,99.99
2022-10-23T10:14:25.713Z,99.99
2022-10-23T10:15:28.790Z,99.99
2022-10-23T10:16:25.779Z,99.99
2022-10-23T10:17:25.715Z,99.99
2022-10-23T10:18:25.719Z,99.99
2022-10-23T10:19:25.718Z,99.99
2022-10-23T10:20:25.719Z,99.99
2022-10-23T10:21:25.725Z,99.99
2022-10-23T10:22:25.726Z,99.99
2022-10-23T10:23:25.728Z,99.99
2022-10-23T10:24:25.792Z,99.99
2022-10-23T10:25:30.599Z,99.99
2022-10-23T10:26:26.992Z,99.99
2022-10-23T10:27:25.734Z,99.99
2022-10-23T10:28:25.735Z,99.99
2022-10-23T10:29:25.742Z,99.99
2022-10-23T10:30:25.894Z,99.99
2022-10-23T10:31:25.739Z,99.99
2022-10-23T10:32:25.739Z,99.98
2022-10-23T10:33:25.751Z,99.99
2022-10-23T10:34:25.742Z,99.74
2022-10-23T10:35:25.747Z,99.02
2022-10-23T10:37:28.615Z,97.67
2022-10-23T10:38:25.750Z,98.25
2022-10-23T10:39:25.623Z,97.96
2022-10-23T10:40:25.810Z,97.38
2022-10-23T10:41:25.754Z,97.09
2022-10-23T10:42:25.763Z,97.86
2022-10-23T10:43:25.754Z,97.62
2022-10-23T10:44:25.770Z,97.38
2022-10-23T10:45:25.770Z,97.28
2022-10-23T10:46:25.821Z,96.56
2022-10-23T10:47:25.768Z,97.09
2022-10-23T10:48:28.783Z,96.66
2022-10-23T10:49:25.778Z,96.84
2022-10-23T10:50:25.774Z,96.56
2022-10-23T10:51:25.775Z,96.08
2022-10-23T10:52:25.772Z,95.98
2022-10-23T10:53:25.780Z,96.03
2022-10-23T10:54:25.782Z,96.61
2022-10-23T10:55:25.781Z,96.12
2022-10-23T10:56:25.846Z,96.41
2022-10-23T10:57:25.857Z,96.89
2022-10-23T10:58:25.805Z,97.09
2022-10-23T10:59:25.809Z,96.89
2022-10-23T11:00:25.798Z,96.61
2022-10-23T11:01:27.531Z,97.09
2022-10-23T11:02:25.933Z,96.66
2022-10-23T11:03:25.797Z,96.08
2022-10-23T11:04:25.800Z,96.17
2022-10-23T11:05:25.863Z,96.08
2022-10-23T11:06:25.826Z,96.27
2022-10-23T11:07:25.828Z,96.56
2022-10-23T11:08:25.806Z,96.17
2022-10-23T11:09:25.809Z,96.17
2022-10-23T11:10:25.815Z,96.46
2022-10-23T11:11:25.810Z,96.7
2022-10-23T11:12:25.870Z,96.27
2022-10-23T11:13:25.815Z,96.89
2022-10-23T11:14:25.820Z,96.46
2022-10-23T11:15:25.826Z,96.36
2022-10-23T11:16:25.824Z,95.83
2022-10-23T11:17:25.823Z,95.88
2022-10-23T11:18:25.827Z,95.98
2022-10-23T11:19:25.828Z,96.41
2022-10-23T11:20:28.835Z,96.56
2022-10-23T11:21:25.833Z,96.56
2022-10-23T11:22:25.874Z,95.88
2022-10-23T11:23:25.841Z,96.03
2022-10-23T11:24:25.833Z,96.03
2022-10-23T11:25:25.837Z,94.77
2022-10-23T11:26:25.839Z,94.68
2022-10-23T11:27:25.849Z,94.58
2022-10-23T11:28:25.899Z,94.68
2022-10-23T11:29:25.845Z,94.29
2022-10-23T11:30:25.862Z,94.2
2022-10-23T11:31:28.850Z,93.8
2022-10-23T11:32:26.018Z,93.8
2022-10-23T11:33:25.857Z,94.2
2022-10-23T11:34:25.851Z,94.96
2022-10-23T11:35:25.855Z,94.87
2022-10-23T11:36:25.852Z,94.77
2022-10-23T11:37:25.867Z,94.87
2022-10-23T11:38:25.862Z,95.06
2022-10-23T11:39:25.863Z,94.48
2022-10-23T11:40:25.871Z,94.38
2022-10-23T11:41:29.161Z,94.29
2022-10-23T11:42:25.873Z,94.48
2022-10-23T11:43:25.874Z,94.96
2022-10-23T11:44:25.926Z,95.06
2022-10-23T11:45:25.872Z,95.69
2022-10-23T11:46:25.878Z,95.69
2022-10-23T11:47:26.055Z,95.69
2022-10-23T11:48:25.883Z,95.79
2022-10-23T11:49:25.887Z,96.27
2022-10-23T11:50:25.890Z,96.89
2022-10-23T11:51:25.887Z,96.7
2022-10-23T11:52:26.023Z,97.28
2022-10-23T11:53:34.906Z,96.61
2022-10-23T11:54:25.892Z,97.19
2022-10-23T11:55:25.986Z,97.47
2022-10-23T11:56:25.894Z,97.86
2022-10-23T11:57:26.235Z,98
2022-10-23T11:58:28.743Z,98.1
2022-10-23T11:59:25.906Z,97.91
2022-10-23T12:00:25.959Z,98
2022-10-23T12:01:26.017Z,98.2
2022-10-23T12:02:26.193Z,98.58
2022-10-23T12:03:25.938Z,97.62
2022-10-23T12:04:25.913Z,97.81
2022-10-23T12:05:25.912Z,98.68
2022-10-23T12:06:25.932Z,98.68
2022-10-23T12:07:25.939Z,97.14
2022-10-23T12:08:26.361Z,97.14
2022-10-23T12:09:27.029Z,96.7
2022-10-23T12:10:25.921Z,97.33
2022-10-23T12:11:29.782Z,97.62
2022-10-23T12:12:26.209Z,97.42
2022-10-23T12:13:25.922Z,97.96
2022-10-23T12:14:25.928Z,97.57
2022-10-23T12:15:25.943Z,97.38
2022-10-23T12:16:27.242Z,97.28
2022-10-23T12:17:25.958Z,97.96
2022-10-23T12:18:25.940Z,97.67
2022-10-23T12:19:25.934Z,98.15
2022-10-23T12:20:28.715Z,98.2
2022-10-23T12:21:25.943Z,98.77
2022-10-23T12:22:26.062Z,98.58
2022-10-23T12:23:25.941Z,98.58
2022-10-23T12:24:25.963Z,98.77
2022-10-23T12:25:25.953Z,98.87
2022-10-23T12:26:25.993Z,98.49
2022-10-23T12:27:25.971Z,98.39
2022-10-23T12:28:28.946Z,98.68
2022-10-23T12:29:26.019Z,98.49
2022-10-23T12:30:25.962Z,98.77
2022-10-23T12:31:29.089Z,99.26
2022-10-23T12:32:26.838Z,98.97
2022-10-23T12:33:25.967Z,99.55
2022-10-23T12:34:26.763Z,99.93
2022-10-23T12:35:26.087Z,99.99
2022-10-23T12:36:26.741Z,99.99
2022-10-23T12:37:25.980Z,99.98
2022-10-23T12:38:26.124Z,99.99
2022-10-23T12:39:26.263Z,99.99
2022-10-23T12:40:29.185Z,99.99
2022-10-23T12:41:25.977Z,99.99
2022-10-23T12:42:29.118Z,99.99
2022-10-23T12:43:26.134Z,99.99
2022-10-23T12:44:25.976Z,99.99
2022-10-23T12:45:25.982Z,99.99
2022-10-23T12:46:25.995Z,99.99
2022-10-23T12:47:26.060Z,99.99
2022-10-23T12:48:26.011Z,99.99
2022-10-23T12:49:25.993Z,99.99
2022-10-23T12:50:26.035Z,99.99
2022-10-23T12:51:26.125Z,99.99
2022-10-23T12:52:25.834Z,99.99
2022-10-23T12:53:27.108Z,99.99
2022-10-23T12:54:26.002Z,99.99
2022-10-23T12:55:26.016Z,99.99
2022-10-23T12:56:26.017Z,99.99